sensor_id;sensor_type;location;lat;lon;timestamp;pressure;altitude;pressure_sealevel;temperature;humidity
81990;BME280;71485;51.638;-0.182;2023-12-28T00:01:39;99242.98;;;19.80;34.74
81990;BME280;71485;51.638;-0.182;2023-12-28T00:04:05;99242.26;;;19.76;34.77
81990;BME280;71485;51.638;-0.182;2023-12-28T00:06:31;99251.48;;;19.21;34.80
81990;BME280;71485;51.638;-0.182;2023-12-28T00:08:57;99253.91;;;19.66;34.84
81990;BME280;71485;51.638;-0.182;2023-12-28T00:11:25;99249.85;;;19.62;34.87
81990;BME280;71485;51.638;-0.182;2023-12-28T00:13:49;99246.60;;;19.70;34.75
81990;BME280;71485;51.638;-0.182;2023-12-28T00:16:13;99247.81;;;19.68;34.74
81990;BME280;71485;51.638;-0.182;2023-12-28T00:18:39;99240.41;;;19.78;34.58
81990;BME280;71485;51.638;-0.182;2023-12-28T00:21:05;99234.32;;;19.80;34.50
81990;BME280;71485;51.638;-0.182;2023-12-28T00:23:30;99238.52;;;19.31;34.54
81990;BME280;71485;51.638;-0.182;2023-12-28T00:25:56;99221.48;;;19.84;34.43
81990;BME280;71485;51.638;-0.182;2023-12-28T00:28:23;99223.93;;;19.84;34.42
81990;BME280;71485;51.638;-0.182;2023-12-28T00:30:47;99222.47;;;19.60;34.39
81990;BME280;71485;51.638;-0.182;2023-12-28T00:33:12;99224.73;;;19.79;34.43
81990;BME280;71485;51.638;-0.182;2023-12-28T00:35:38;99239.09;;;19.24;34.53
81990;BME280;71485;51.638;-0.182;2023-12-28T00:38:04;99255.45;;;19.20;34.59
81990;BME280;71485;51.638;-0.182;2023-12-28T00:40:36;99245.73;;;19.48;34.52
81990;BME280;71485;51.638;-0.182;2023-12-28T00:42:55;99250.94;;;19.17;34.59
81990;BME280;71485;51.638;-0.182;2023-12-28T00:45:21;99261.78;;;19.62;34.65
81990;BME280;71485;51.638;-0.182;2023-12-28T00:47:46;99253.39;;;19.64;34.63
81990;BME280;71485;51.638;-0.182;2023-12-28T00:50:12;99237.23;;;19.41;34.63
81990;BME280;71485;51.638;-0.182;2023-12-28T00:52:44;99254.31;;;19.68;34.57
81990;BME280;71485;51.638;-0.182;2023-12-28T00:55:04;99251.13;;;19.43;34.56
81990;BME280;71485;51.638;-0.182;2023-12-28T00:57:31;99258.15;;;19.39;34.59
81990;BME280;71485;51.638;-0.182;2023-12-28T00:59:54;99257.60;;;19.60;34.62
81990;BME280;71485;51.638;-0.182;2023-12-28T01:02:20;99274.72;;;19.57;34.68
81990;BME280;71485;51.638;-0.182;2023-12-28T01:04:45;99278.47;;;19.58;34.62
81990;BME280;71485;51.638;-0.182;2023-12-28T01:07:11;99278.18;;;19.85;34.59
81990;BME280;71485;51.638;-0.182;2023-12-28T01:09:37;99278.19;;;19.37;34.57
81990;BME280;71485;51.638;-0.182;2023-12-28T01:12:02;99280.54;;;19.36;34.58
81990;BME280;71485;51.638;-0.182;2023-12-28T01:14:27;99271.41;;;19.08;34.62
81990;BME280;71485;51.638;-0.182;2023-12-28T01:16:54;99268.94;;;19.31;34.63
81990;BME280;71485;51.638;-0.182;2023-12-28T01:19:19;99271.01;;;19.57;34.59
81990;BME280;71485;51.638;-0.182;2023-12-28T01:21:44;99270.53;;;19.57;34.57
81990;BME280;71485;51.638;-0.182;2023-12-28T01:24:10;99276.23;;;19.61;34.51
81990;BME280;71485;51.638;-0.182;2023-12-28T01:26:37;99264.98;;;19.36;34.46
81990;BME280;71485;51.638;-0.182;2023-12-28T01:29:02;99264.88;;;19.67;34.41
81990;BME280;71485;51.638;-0.182;2023-12-28T01:31:27;99259.40;;;19.23;34.36
81990;BME280;71485;51.638;-0.182;2023-12-28T01:33:54;99266.82;;;19.73;34.33
81990;BME280;71485;51.638;-0.182;2023-12-28T01:36:19;99269.45;;;19.76;34.31
81990;BME280;71485;51.638;-0.182;2023-12-28T01:38:44;99266.86;;;19.71;34.35
81990;BME280;71485;51.638;-0.182;2023-12-28T01:41:10;99269.03;;;19.72;34.31
81990;BME280;71485;51.638;-0.182;2023-12-28T01:43:35;99282.70;;;19.51;34.31
81990;BME280;71485;51.638;-0.182;2023-12-28T01:46:01;99276.04;;;19.76;34.33
81990;BME280;71485;51.638;-0.182;2023-12-28T01:48:28;99280.68;;;19.52;34.31
81990;BME280;71485;51.638;-0.182;2023-12-28T01:50:51;99294.40;;;19.55;34.32
81990;BME280;71485;51.638;-0.182;2023-12-28T01:53:18;99289.17;;;19.82;34.27
81990;BME280;71485;51.638;-0.182;2023-12-28T01:55:42;99299.43;;;19.56;34.28
81990;BME280;71485;51.638;-0.182;2023-12-28T01:58:08;99301.96;;;19.78;34.34
81990;BME280;71485;51.638;-0.182;2023-12-28T02:00:34;99301.72;;;19.58;34.27
81990;BME280;71485;51.638;-0.182;2023-12-28T02:03:00;99305.02;;;19.58;34.27
81990;BME280;71485;51.638;-0.182;2023-12-28T02:05:25;99312.54;;;19.35;34.25
81990;BME280;71485;51.638;-0.182;2023-12-28T02:07:50;99313.77;;;19.82;34.28
81990;BME280;71485;51.638;-0.182;2023-12-28T02:10:17;99332.60;;;19.61;34.27
81990;BME280;71485;51.638;-0.182;2023-12-28T02:12:42;99329.60;;;19.78;34.38
81990;BME280;71485;51.638;-0.182;2023-12-28T02:15:08;99336.78;;;19.77;34.41
81990;BME280;71485;51.638;-0.182;2023-12-28T02:17:37;99344.34;;;19.29;34.42
81990;BME280;71485;51.638;-0.182;2023-12-28T02:19:58;99331.00;;;19.30;34.39
81990;BME280;71485;51.638;-0.182;2023-12-28T02:22:26;99325.02;;;19.76;34.41
81990;BME280;71485;51.638;-0.182;2023-12-28T02:25:00;99324.42;;;19.79;34.40
81990;BME280;71485;51.638;-0.182;2023-12-28T02:27:17;99324.94;;;19.77;34.41
81990;BME280;71485;51.638;-0.182;2023-12-28T02:29:41;99323.63;;;19.30;34.37
81990;BME280;71485;51.638;-0.182;2023-12-28T02:32:09;99323.89;;;19.53;34.36
81990;BME280;71485;51.638;-0.182;2023-12-28T02:34:37;99323.94;;;19.28;34.37
81990;BME280;71485;51.638;-0.182;2023-12-28T02:36:57;99336.04;;;19.75;34.36
81990;BME280;71485;51.638;-0.182;2023-12-28T02:39:28;99336.71;;;19.71;34.42
81990;BME280;71485;51.638;-0.182;2023-12-28T02:41:49;99341.95;;;19.45;34.46
81990;BME280;71485;51.638;-0.182;2023-12-28T02:44:19;99327.99;;;19.68;34.44
81990;BME280;71485;51.638;-0.182;2023-12-28T02:46:40;99344.91;;;19.67;34.47
81990;BME280;71485;51.638;-0.182;2023-12-28T02:49:07;99349.06;;;19.93;34.44
81990;BME280;71485;51.638;-0.182;2023-12-28T02:51:31;99343.54;;;19.22;34.39
81990;BME280;71485;51.638;-0.182;2023-12-28T02:53:58;99349.36;;;19.45;34.40
81990;BME280;71485;51.638;-0.182;2023-12-28T02:56:23;99350.28;;;19.67;34.42
81990;BME280;71485;51.638;-0.182;2023-12-28T02:58:48;99346.68;;;19.66;34.45
81990;BME280;71485;51.638;-0.182;2023-12-28T03:01:13;99345.63;;;19.65;34.48
81990;BME280;71485;51.638;-0.182;2023-12-28T03:03:39;99343.82;;;19.61;34.54
81990;BME280;71485;51.638;-0.182;2023-12-28T03:06:05;99350.97;;;19.61;34.57
81990;BME280;71485;51.638;-0.182;2023-12-28T03:08:30;99358.49;;;19.08;34.62
81990;BME280;71485;51.638;-0.182;2023-12-28T03:10:58;99347.59;;;19.59;34.61
81990;BME280;71485;51.638;-0.182;2023-12-28T03:13:23;99358.89;;;19.61;34.54
81990;BME280;71485;51.638;-0.182;2023-12-28T03:15:47;99349.35;;;19.58;34.62
81990;BME280;71485;51.638;-0.182;2023-12-28T03:18:13;99347.63;;;19.56;34.62
81990;BME280;71485;51.638;-0.182;2023-12-28T03:20:38;99349.37;;;19.33;34.60
81990;BME280;71485;51.638;-0.182;2023-12-28T03:23:03;99352.15;;;19.59;34.57
81990;BME280;71485;51.638;-0.182;2023-12-28T03:25:30;99344.71;;;19.14;34.51
81990;BME280;71485;51.638;-0.182;2023-12-28T03:27:56;99343.56;;;19.57;34.81
81990;BME280;71485;51.638;-0.182;2023-12-28T03:30:24;99352.95;;;19.61;35.60
81990;BME280;71485;51.638;-0.182;2023-12-28T03:32:46;99342.78;;;19.63;35.18
81990;BME280;71485;51.638;-0.182;2023-12-28T03:35:11;99342.18;;;19.64;35.17
81990;BME280;71485;51.638;-0.182;2023-12-28T03:37:37;99350.55;;;19.18;35.11
81990;BME280;71485;51.638;-0.182;2023-12-28T03:40:04;99343.07;;;19.73;35.12
81990;BME280;71485;51.638;-0.182;2023-12-28T03:42:28;99357.77;;;19.28;35.29
81990;BME280;71485;51.638;-0.182;2023-12-28T03:44:54;99350.57;;;19.51;35.15
81990;BME280;71485;51.638;-0.182;2023-12-28T03:47:19;99347.87;;;19.81;34.89
81990;BME280;71485;51.638;-0.182;2023-12-28T03:49:45;99349.56;;;19.53;34.89
81990;BME280;71485;51.638;-0.182;2023-12-28T03:52:12;99346.71;;;19.31;34.75
81990;BME280;71485;51.638;-0.182;2023-12-28T03:54:36;99342.87;;;19.54;34.73
81990;BME280;71485;51.638;-0.182;2023-12-28T03:57:02;99353.45;;;19.30;34.72
81990;BME280;71485;51.638;-0.182;2023-12-28T03:59:27;99349.82;;;19.32;34.66
81990;BME280;71485;51.638;-0.182;2023-12-28T04:01:54;99354.29;;;19.58;34.71
81990;BME280;71485;51.638;-0.182;2023-12-28T04:04:18;99349.20;;;19.58;34.63
81990;BME280;71485;51.638;-0.182;2023-12-28T04:06:44;99351.57;;;19.83;34.66
81990;BME280;71485;51.638;-0.182;2023-12-28T04:09:11;99357.19;;;19.62;34.66
81990;BME280;71485;51.638;-0.182;2023-12-28T04:11:37;99359.15;;;19.61;34.58
81990;BME280;71485;51.638;-0.182;2023-12-28T04:14:00;99374.29;;;19.62;34.58
81990;BME280;71485;51.638;-0.182;2023-12-28T04:16:26;99369.47;;;18.90;34.47
81990;BME280;71485;51.638;-0.182;2023-12-28T04:18:52;99379.52;;;19.61;34.44
81990;BME280;71485;51.638;-0.182;2023-12-28T04:21:17;99371.16;;;19.59;34.38
81990;BME280;71485;51.638;-0.182;2023-12-28T04:23:44;99381.87;;;19.35;34.49
81990;BME280;71485;51.638;-0.182;2023-12-28T04:26:12;99384.74;;;19.86;34.50
81990;BME280;71485;51.638;-0.182;2023-12-28T04:28:34;99386.88;;;19.42;34.40
81990;BME280;71485;51.638;-0.182;2023-12-28T04:31:03;99382.97;;;19.55;34.22
81990;BME280;71485;51.638;-0.182;2023-12-28T04:33:26;99386.91;;;19.66;33.79
81990;BME280;71485;51.638;-0.182;2023-12-28T04:35:51;99385.19;;;19.82;33.74
81990;BME280;71485;51.638;-0.182;2023-12-28T04:38:18;99392.14;;;19.80;33.70
81990;BME280;71485;51.638;-0.182;2023-12-28T04:40:44;99386.93;;;20.03;33.59
81990;BME280;71485;51.638;-0.182;2023-12-28T04:43:07;99394.59;;;20.01;33.60
81990;BME280;71485;51.638;-0.182;2023-12-28T04:45:34;99388.98;;;19.54;33.51
81990;BME280;71485;51.638;-0.182;2023-12-28T04:48:00;99381.90;;;20.00;33.52
81990;BME280;71485;51.638;-0.182;2023-12-28T04:50:26;99378.18;;;19.76;33.50
81990;BME280;71485;51.638;-0.182;2023-12-28T04:52:51;99383.08;;;20.00;33.47
81990;BME280;71485;51.638;-0.182;2023-12-28T04:55:15;99380.67;;;20.00;33.47
81990;BME280;71485;51.638;-0.182;2023-12-28T04:57:41;99388.85;;;19.52;33.49
81990;BME280;71485;51.638;-0.182;2023-12-28T05:00:09;99391.74;;;19.78;33.43
81990;BME280;71485;51.638;-0.182;2023-12-28T05:02:32;99399.59;;;19.52;33.43
81990;BME280;71485;51.638;-0.182;2023-12-28T05:04:58;99402.80;;;19.99;33.43
81990;BME280;71485;51.638;-0.182;2023-12-28T05:07:24;99399.67;;;19.98;33.42
81990;BME280;71485;51.638;-0.182;2023-12-28T05:09:51;99401.63;;;19.73;33.42
81990;BME280;71485;51.638;-0.182;2023-12-28T05:12:14;99398.63;;;19.95;33.47
81990;BME280;71485;51.638;-0.182;2023-12-28T05:14:42;99403.82;;;19.72;33.41
81990;BME280;71485;51.638;-0.182;2023-12-28T05:17:05;99402.38;;;19.97;33.37
81990;BME280;71485;51.638;-0.182;2023-12-28T05:19:31;99409.72;;;19.41;33.56
81990;BME280;71485;51.638;-0.182;2023-12-28T05:21:56;99392.89;;;19.80;33.73
81990;BME280;71485;51.638;-0.182;2023-12-28T05:24:22;99386.24;;;19.76;33.93
81990;BME280;71485;51.638;-0.182;2023-12-28T05:26:49;99395.44;;;19.65;34.18
81990;BME280;71485;51.638;-0.182;2023-12-28T05:29:15;99404.17;;;19.57;34.40
81990;BME280;71485;51.638;-0.182;2023-12-28T05:31:39;99403.51;;;19.62;34.39
81990;BME280;71485;51.638;-0.182;2023-12-28T05:34:04;99405.75;;;19.46;34.32
81990;BME280;71485;51.638;-0.182;2023-12-28T05:36:30;99391.50;;;19.26;34.31
81990;BME280;71485;51.638;-0.182;2023-12-28T05:38:58;99401.67;;;19.77;34.32
81990;BME280;71485;51.638;-0.182;2023-12-28T05:41:26;99405.78;;;19.80;34.31
81990;BME280;71485;51.638;-0.182;2023-12-28T05:43:47;99420.86;;;19.34;34.29
81990;BME280;71485;51.638;-0.182;2023-12-28T05:46:18;99410.53;;;19.84;34.31
81990;BME280;71485;51.638;-0.182;2023-12-28T05:48:40;99422.15;;;19.62;34.28
81990;BME280;71485;51.638;-0.182;2023-12-28T05:51:04;99424.49;;;19.88;34.28
81990;BME280;71485;51.638;-0.182;2023-12-28T05:53:33;99427.06;;;19.42;34.27
81990;BME280;71485;51.638;-0.182;2023-12-28T05:55:55;99423.64;;;19.41;34.28
81990;BME280;71485;51.638;-0.182;2023-12-28T05:58:21;99428.97;;;19.67;34.29
81990;BME280;71485;51.638;-0.182;2023-12-28T06:00:53;99435.96;;;19.68;34.29
81990;BME280;71485;51.638;-0.182;2023-12-28T06:03:12;99447.28;;;19.67;34.31
81990;BME280;71485;51.638;-0.182;2023-12-28T06:05:39;99452.35;;;19.66;34.32
81990;BME280;71485;51.638;-0.182;2023-12-28T06:08:04;99452.56;;;19.91;34.37
81990;BME280;71485;51.638;-0.182;2023-12-28T06:10:30;99446.21;;;19.47;34.33
81990;BME280;71485;51.638;-0.182;2023-12-28T06:12:54;99452.90;;;19.68;34.38
81990;BME280;71485;51.638;-0.182;2023-12-28T06:15:20;99451.88;;;19.65;34.41
81990;BME280;71485;51.638;-0.182;2023-12-28T06:17:46;99448.74;;;19.93;34.37
81990;BME280;71485;51.638;-0.182;2023-12-28T06:20:12;99441.32;;;19.96;34.26
81990;BME280;71485;51.638;-0.182;2023-12-28T06:22:37;99439.52;;;19.49;34.18
81990;BME280;71485;51.638;-0.182;2023-12-28T06:25:03;99438.42;;;19.42;34.23
81990;BME280;71485;51.638;-0.182;2023-12-28T06:27:30;99433.63;;;19.38;34.23
81990;BME280;71485;51.638;-0.182;2023-12-28T06:29:56;99431.80;;;19.79;34.27
81990;BME280;71485;51.638;-0.182;2023-12-28T06:32:19;99443.28;;;19.69;34.36
81990;BME280;71485;51.638;-0.182;2023-12-28T06:34:45;99448.71;;;19.67;34.33
81990;BME280;71485;51.638;-0.182;2023-12-28T06:37:12;99454.58;;;19.88;34.33
81990;BME280;71485;51.638;-0.182;2023-12-28T06:39:38;99454.89;;;19.59;34.37
81990;BME280;71485;51.638;-0.182;2023-12-28T06:42:02;99465.50;;;19.27;34.44
81990;BME280;71485;51.638;-0.182;2023-12-28T06:44:29;99469.48;;;19.06;34.33
81990;BME280;71485;51.638;-0.182;2023-12-28T06:46:53;99473.85;;;19.52;34.38
81990;BME280;71485;51.638;-0.182;2023-12-28T06:49:19;99480.14;;;19.71;34.35
81990;BME280;71485;51.638;-0.182;2023-12-28T06:51:51;99486.73;;;19.70;34.39
81990;BME280;71485;51.638;-0.182;2023-12-28T06:54:10;99486.62;;;19.43;34.35
81990;BME280;71485;51.638;-0.182;2023-12-28T06:56:40;99478.71;;;19.19;34.33
81990;BME280;71485;51.638;-0.182;2023-12-28T06:59:01;99488.35;;;19.42;34.31
81990;BME280;71485;51.638;-0.182;2023-12-28T07:01:27;99489.51;;;18.91;34.33
81990;BME280;71485;51.638;-0.182;2023-12-28T07:03:53;99495.23;;;18.91;34.32
81990;BME280;71485;51.638;-0.182;2023-12-28T07:06:18;99499.26;;;19.38;34.33
81990;BME280;71485;51.638;-0.182;2023-12-28T07:08:44;99497.10;;;19.42;34.21
81990;BME280;71485;51.638;-0.182;2023-12-28T07:11:11;99495.09;;;19.41;34.21
81990;BME280;71485;51.638;-0.182;2023-12-28T07:13:35;99495.67;;;19.40;34.23
81990;BME280;71485;51.638;-0.182;2023-12-28T07:16:01;99487.61;;;19.62;34.22
81990;BME280;71485;51.638;-0.182;2023-12-28T07:18:26;99489.32;;;18.86;34.28
81990;BME280;71485;51.638;-0.182;2023-12-28T07:20:52;99500.21;;;19.32;34.31
81990;BME280;71485;51.638;-0.182;2023-12-28T07:23:18;99497.65;;;19.57;34.27
81990;BME280;71485;51.638;-0.182;2023-12-28T07:25:48;99502.25;;;19.11;34.23
81990;BME280;71485;51.638;-0.182;2023-12-28T07:28:12;99495.57;;;19.35;34.20
81990;BME280;71485;51.638;-0.182;2023-12-28T07:30:36;99501.09;;;19.59;34.22
81990;BME280;71485;51.638;-0.182;2023-12-28T07:33:03;99500.02;;;19.32;34.24
81990;BME280;71485;51.638;-0.182;2023-12-28T07:35:26;99506.11;;;18.83;34.23
81990;BME280;71485;51.638;-0.182;2023-12-28T07:37:59;99499.99;;;19.31;34.22
81990;BME280;71485;51.638;-0.182;2023-12-28T07:40:18;99504.27;;;19.54;34.24
81990;BME280;71485;51.638;-0.182;2023-12-28T07:42:46;99496.52;;;19.33;34.22
81990;BME280;71485;51.638;-0.182;2023-12-28T07:45:09;99508.14;;;19.33;34.23
81990;BME280;71485;51.638;-0.182;2023-12-28T07:47:34;99511.99;;;19.04;34.28
81990;BME280;71485;51.638;-0.182;2023-12-28T07:50:00;99527.63;;;19.53;34.25
81990;BME280;71485;51.638;-0.182;2023-12-28T07:52:27;99525.60;;;19.28;34.28
81990;BME280;71485;51.638;-0.182;2023-12-28T07:54:51;99519.67;;;19.27;34.33
81990;BME280;71485;51.638;-0.182;2023-12-28T07:57:16;99525.11;;;19.19;34.43
81990;BME280;71485;51.638;-0.182;2023-12-28T07:59:42;99512.40;;;19.21;34.42
81990;BME280;71485;51.638;-0.182;2023-12-28T08:02:08;99527.38;;;19.23;34.44
81990;BME280;71485;51.638;-0.182;2023-12-28T08:04:33;99513.20;;;19.45;34.46
81990;BME280;71485;51.638;-0.182;2023-12-28T08:06:59;99518.93;;;19.21;34.45
81990;BME280;71485;51.638;-0.182;2023-12-28T08:09:27;99521.70;;;19.20;34.51
81990;BME280;71485;51.638;-0.182;2023-12-28T08:11:51;99519.04;;;19.48;34.48
81990;BME280;71485;51.638;-0.182;2023-12-28T08:14:16;99518.70;;;19.27;34.44
81990;BME280;71485;51.638;-0.182;2023-12-28T08:16:41;99519.13;;;19.31;34.42
81990;BME280;71485;51.638;-0.182;2023-12-28T08:19:07;99528.11;;;19.58;34.38
81990;BME280;71485;51.638;-0.182;2023-12-28T08:21:33;99524.01;;;19.33;34.40
81990;BME280;71485;51.638;-0.182;2023-12-28T08:24:00;99526.58;;;19.58;34.44
81990;BME280;71485;51.638;-0.182;2023-12-28T08:26:26;99521.99;;;19.32;34.52
81990;BME280;71485;51.638;-0.182;2023-12-28T08:28:49;99523.25;;;19.34;34.53
81990;BME280;71485;51.638;-0.182;2023-12-28T08:31:15;99510.29;;;19.36;34.55
81990;BME280;71485;51.638;-0.182;2023-12-28T08:33:41;99518.16;;;19.13;34.57
81990;BME280;71485;51.638;-0.182;2023-12-28T08:36:12;99511.68;;;19.39;34.58
81990;BME280;71485;51.638;-0.182;2023-12-28T08:38:33;99519.41;;;18.91;34.64
81990;BME280;71485;51.638;-0.182;2023-12-28T08:40:59;99515.20;;;19.42;34.71
81990;BME280;71485;51.638;-0.182;2023-12-28T08:43:24;99520.01;;;19.41;34.74
81990;BME280;71485;51.638;-0.182;2023-12-28T08:45:49;99521.92;;;19.17;34.75
81990;BME280;71485;51.638;-0.182;2023-12-28T08:48:14;99522.64;;;19.42;34.76
81990;BME280;71485;51.638;-0.182;2023-12-28T08:50:40;99507.03;;;19.46;34.72
81990;BME280;71485;51.638;-0.182;2023-12-28T08:53:08;99515.71;;;19.70;34.70
81990;BME280;71485;51.638;-0.182;2023-12-28T08:55:31;99521.44;;;19.46;34.72
81990;BME280;71485;51.638;-0.182;2023-12-28T08:57:57;99526.37;;;19.45;34.73
81990;BME280;71485;51.638;-0.182;2023-12-28T09:00:23;99520.81;;;19.50;34.65
81990;BME280;71485;51.638;-0.182;2023-12-28T09:02:47;99533.62;;;19.45;34.69
81990;BME280;71485;51.638;-0.182;2023-12-28T09:05:13;99537.17;;;19.46;34.72
81990;BME280;71485;51.638;-0.182;2023-12-28T09:07:39;99546.26;;;19.25;34.66
81990;BME280;71485;51.638;-0.182;2023-12-28T09:10:10;99562.43;;;19.47;34.68
81990;BME280;71485;51.638;-0.182;2023-12-28T09:12:30;99568.78;;;18.99;34.71
81990;BME280;71485;51.638;-0.182;2023-12-28T09:14:55;99586.32;;;19.50;34.69
81990;BME280;71485;51.638;-0.182;2023-12-28T09:17:22;99564.72;;;19.47;34.72
81990;BME280;71485;51.638;-0.182;2023-12-28T09:19:46;99569.70;;;19.50;34.72
81990;BME280;71485;51.638;-0.182;2023-12-28T09:22:12;99552.30;;;19.50;34.74
81990;BME280;71485;51.638;-0.182;2023-12-28T09:24:38;99560.99;;;19.26;34.77
81990;BME280;71485;51.638;-0.182;2023-12-28T09:27:05;99560.76;;;19.51;34.74
81990;BME280;71485;51.638;-0.182;2023-12-28T09:29:28;99557.41;;;19.07;34.68
81990;BME280;71485;51.638;-0.182;2023-12-28T09:31:54;99560.48;;;19.56;35.02
81990;BME280;71485;51.638;-0.182;2023-12-28T09:34:19;99557.02;;;19.56;35.65
81990;BME280;71485;51.638;-0.182;2023-12-28T09:36:45;99565.63;;;19.54;36.15
81990;BME280;71485;51.638;-0.182;2023-12-28T09:39:12;99564.14;;;19.54;36.52
81990;BME280;71485;51.638;-0.182;2023-12-28T09:41:39;99564.54;;;19.48;36.85
81990;BME280;71485;51.638;-0.182;2023-12-28T09:44:08;99567.01;;;19.52;37.06
81990;BME280;71485;51.638;-0.182;2023-12-28T09:46:30;99569.96;;;19.07;37.25
81990;BME280;71485;51.638;-0.182;2023-12-28T09:48:55;99569.39;;;19.32;37.19
81990;BME280;71485;51.638;-0.182;2023-12-28T09:51:19;99569.60;;;19.64;37.20
81990;BME280;71485;51.638;-0.182;2023-12-28T09:53:45;99568.98;;;19.77;36.61
81990;BME280;71485;51.638;-0.182;2023-12-28T09:56:09;99571.44;;;19.79;36.23
81990;BME280;71485;51.638;-0.182;2023-12-28T09:58:35;99569.13;;;19.33;36.03
81990;BME280;71485;51.638;-0.182;2023-12-28T10:01:00;99570.90;;;19.39;35.76
81990;BME280;71485;51.638;-0.182;2023-12-28T10:03:26;99573.29;;;19.41;35.64
81990;BME280;71485;51.638;-0.182;2023-12-28T10:05:53;99582.19;;;19.92;35.54
81990;BME280;71485;51.638;-0.182;2023-12-28T10:08:23;99576.06;;;19.98;35.42
81990;BME280;71485;51.638;-0.182;2023-12-28T10:10:44;99579.00;;;19.76;35.36
81990;BME280;71485;51.638;-0.182;2023-12-28T10:13:10;99578.37;;;19.76;35.39
81990;BME280;71485;51.638;-0.182;2023-12-28T10:15:35;99577.65;;;19.59;35.87
81990;BME280;71485;51.638;-0.182;2023-12-28T10:17:59;99573.06;;;19.90;36.53
81990;BME280;71485;51.638;-0.182;2023-12-28T10:20:26;99573.62;;;19.70;36.66
81990;BME280;71485;51.638;-0.182;2023-12-28T10:22:51;99564.70;;;19.73;36.70
81990;BME280;71485;51.638;-0.182;2023-12-28T10:25:16;99570.61;;;20.24;36.67
81990;BME280;71485;51.638;-0.182;2023-12-28T10:27:42;99570.04;;;19.79;36.57
81990;BME280;71485;51.638;-0.182;2023-12-28T10:30:08;99565.49;;;19.80;36.52
81990;BME280;71485;51.638;-0.182;2023-12-28T10:32:33;99564.15;;;19.83;36.46
81990;BME280;71485;51.638;-0.182;2023-12-28T10:34:57;99567.80;;;19.85;36.34
81990;BME280;71485;51.638;-0.182;2023-12-28T10:37:26;99563.75;;;20.10;36.27
81990;BME280;71485;51.638;-0.182;2023-12-28T10:39:49;99568.23;;;19.88;36.22
81990;BME280;71485;51.638;-0.182;2023-12-28T10:42:13;99557.71;;;19.90;36.13
81990;BME280;71485;51.638;-0.182;2023-12-28T10:44:44;99555.71;;;19.93;36.05
81990;BME280;71485;51.638;-0.182;2023-12-28T10:47:06;99564.87;;;20.01;35.95
81990;BME280;71485;51.638;-0.182;2023-12-28T10:49:30;99563.27;;;19.79;35.87
81990;BME280;71485;51.638;-0.182;2023-12-28T10:51:56;99555.30;;;20.29;35.80
81990;BME280;71485;51.638;-0.182;2023-12-28T10:54:31;99552.48;;;20.04;35.85
81990;BME280;71485;51.638;-0.182;2023-12-28T10:56:54;99543.10;;;20.07;35.78
81990;BME280;71485;51.638;-0.182;2023-12-28T10:59:18;99551.34;;;20.08;35.74
81990;BME280;71485;51.638;-0.182;2023-12-28T11:01:39;99549.15;;;20.10;35.68
81990;BME280;71485;51.638;-0.182;2023-12-28T11:04:09;99547.20;;;20.13;35.63
81990;BME280;71485;51.638;-0.182;2023-12-28T11:06:28;99551.06;;;19.90;35.57
81990;BME280;71485;51.638;-0.182;2023-12-28T11:08:54;99542.80;;;20.16;35.54
81990;BME280;71485;51.638;-0.182;2023-12-28T11:11:21;99538.14;;;20.18;35.48
81990;BME280;71485;51.638;-0.182;2023-12-28T11:13:45;99540.02;;;20.19;35.44
81990;BME280;71485;51.638;-0.182;2023-12-28T11:16:11;99543.01;;;20.19;35.43
81990;BME280;71485;51.638;-0.182;2023-12-28T11:18:35;99541.21;;;19.99;35.34
81990;BME280;71485;51.638;-0.182;2023-12-28T11:21:01;99543.17;;;20.25;35.27
81990;BME280;71485;51.638;-0.182;2023-12-28T11:23:27;99547.99;;;19.77;35.24
81990;BME280;71485;51.638;-0.182;2023-12-28T11:25:53;99562.70;;;20.26;35.19
81990;BME280;71485;51.638;-0.182;2023-12-28T11:28:19;99543.28;;;20.28;35.14
81990;BME280;71485;51.638;-0.182;2023-12-28T11:30:47;99542.39;;;20.29;35.17
81990;BME280;71485;51.638;-0.182;2023-12-28T11:33:10;99540.13;;;20.30;35.14
81990;BME280;71485;51.638;-0.182;2023-12-28T11:35:35;99537.69;;;20.33;35.09
81990;BME280;71485;51.638;-0.182;2023-12-28T11:38:01;99528.59;;;20.35;35.12
81990;BME280;71485;51.638;-0.182;2023-12-28T11:40:26;99510.94;;;20.17;35.29
81990;BME280;71485;51.638;-0.182;2023-12-28T11:42:52;99511.92;;;20.43;35.71
81990;BME280;71485;51.638;-0.182;2023-12-28T11:45:19;99515.16;;;20.23;35.92
81990;BME280;71485;51.638;-0.182;2023-12-28T11:47:42;99504.24;;;20.50;36.04
81990;BME280;71485;51.638;-0.182;2023-12-28T11:50:09;99500.15;;;20.31;36.05
81990;BME280;71485;51.638;-0.182;2023-12-28T11:52:35;99500.22;;;20.58;36.06
81990;BME280;71485;51.638;-0.182;2023-12-28T11:54:59;99503.33;;;20.60;36.03
81990;BME280;71485;51.638;-0.182;2023-12-28T11:57:26;99501.14;;;20.56;35.55
81990;BME280;71485;51.638;-0.182;2023-12-28T11:59:55;99493.73;;;20.50;35.34
81990;BME280;71485;51.638;-0.182;2023-12-28T12:02:17;99495.56;;;20.47;35.43
81990;BME280;71485;51.638;-0.182;2023-12-28T12:04:41;99497.01;;;20.20;35.38
81990;BME280;71485;51.638;-0.182;2023-12-28T12:07:06;99514.81;;;20.40;35.36
81990;BME280;71485;51.638;-0.182;2023-12-28T12:09:34;99526.31;;;20.14;35.43
81990;BME280;71485;51.638;-0.182;2023-12-28T12:11:58;99540.27;;;20.59;35.51
81990;BME280;71485;51.638;-0.182;2023-12-28T12:14:25;99504.28;;;20.33;35.44
81990;BME280;71485;51.638;-0.182;2023-12-28T12:16:49;99508.22;;;20.30;35.45
81990;BME280;71485;51.638;-0.182;2023-12-28T12:19:15;99502.98;;;20.32;35.56
81990;BME280;71485;51.638;-0.182;2023-12-28T12:21:41;99497.85;;;20.33;35.59
81990;BME280;71485;51.638;-0.182;2023-12-28T12:24:06;99497.90;;;20.34;35.59
81990;BME280;71485;51.638;-0.182;2023-12-28T12:26:32;99493.85;;;20.36;35.56
81990;BME280;71485;51.638;-0.182;2023-12-28T12:28:59;99485.63;;;20.37;35.59
81990;BME280;71485;51.638;-0.182;2023-12-28T12:31:24;99473.51;;;20.38;35.52
81990;BME280;71485;51.638;-0.182;2023-12-28T12:33:48;99468.15;;;20.38;35.60
81990;BME280;71485;51.638;-0.182;2023-12-28T12:36:14;99458.96;;;20.35;35.65
81990;BME280;71485;51.638;-0.182;2023-12-28T12:38:42;99455.77;;;20.34;35.66
81990;BME280;71485;51.638;-0.182;2023-12-28T12:41:07;99459.18;;;20.33;35.63